Time;durP1;ratioP1;P1;durP2;ratioP2;P2;SDS_P1;SDS_P2;PMS_P1;PMS_P2;Temp;Humidity;BMP_temperature;BMP_pressure;BME280_temperature;BME280_humidity;BME280_pressure;Samples;Min_cycle;Max_cycle;Signal;HPM_P1;HPM_P2
2021/05/08 00:02:21;;;;;;;19.02;5.42;;;;;;;13.88;100.00;100111.56;1786694;79;21241;-61
2021/05/08 00:04:50;;;;;;;11.88;5.50;;;;;;;13.88;100.00;100111.06;1799389;79;21222;-61
2021/05/08 00:07:18;;;;;;;12.25;5.33;;;;;;;13.88;100.00;100110.21;1784100;79;21202;-61
2021/05/08 00:09:47;;;;;;;20.62;6.75;;;;;;;13.87;100.00;100105.78;1769963;81;21166;-61
2021/05/08 00:12:16;;;;;;;13.80;5.55;;;;;;;13.87;100.00;100104.44;1771726;79;21194;-61
2021/05/08 00:14:45;;;;;;;18.10;5.90;;;;;;;13.87;100.00;100107.12;1770631;80;21194;-61
2021/05/08 00:17:13;;;;;;;18.37;5.67;;;;;;;13.88;100.00;100110.21;1771416;79;21362;-60
2021/05/08 00:19:41;;;;;;;14.73;5.40;;;;;;;13.87;100.00;100115.21;1769869;81;21698;-59
2021/05/08 00:22:08;;;;;;;18.27;6.37;;;;;;;13.86;100.00;100109.44;1770274;79;21207;-61
2021/05/08 00:24:36;;;;;;;14.83;5.35;;;;;;;13.84;100.00;100101.93;1776520;79;21175;-61
2021/05/08 00:27:05;;;;;;;20.30;5.90;;;;;;;13.83;100.00;100090.27;1769957;79;21186;-61
2021/05/08 00:29:32;;;;;;;21.93;6.62;;;;;;;13.82;100.00;100086.34;1790427;79;22219;-60
2021/05/08 00:32:00;;;;;;;14.98;5.58;;;;;;;13.81;100.00;100080.53;1732596;82;21144;-60
2021/05/08 00:34:28;;;;;;;18.65;5.87;;;;;;;13.80;100.00;100088.22;1758127;81;21445;-60
2021/05/08 00:36:56;;;;;;;21.68;6.42;;;;;;;13.76;100.00;100078.13;1735433;81;21292;-61
2021/05/08 00:39:24;;;;;;;19.80;5.85;;;;;;;13.73;100.00;100080.52;1735734;82;21216;-61
2021/05/08 00:41:52;;;;;;;14.38;6.00;;;;;;;13.72;100.00;100084.16;1731265;81;21577;-61
2021/05/08 00:44:20;;;;;;;17.25;5.42;;;;;;;13.70;100.00;100086.09;1743158;81;21217;-61
2021/05/08 00:46:49;;;;;;;14.53;5.95;;;;;;;13.68;100.00;100082.62;1718041;82;21214;-61
2021/05/08 00:49:26;;;;;;;16.02;6.30;;;;;;;13.68;100.00;100085.31;1690854;83;21207;-61
2021/05/08 00:51:49;;;;;;;20.48;6.25;;;;;;;13.67;100.00;100082.69;1701901;83;21217;-60
2021/05/08 00:54:17;;;;;;;18.48;6.28;;;;;;;13.64;100.00;100078.38;1740302;81;21643;-60
2021/05/08 00:56:45;;;;;;;17.23;5.97;;;;;;;13.62;100.00;100073.56;1732563;81;21217;-61
2021/05/08 00:59:13;;;;;;;16.00;6.12;;;;;;;13.60;100.00;100065.55;1777987;80;21216;-61
2021/05/08 01:01:42;;;;;;;15.45;5.70;;;;;;;13.59;100.00;100066.52;1778249;79;21267;-61
2021/05/08 01:04:13;;;;;;;14.87;5.90;;;;;;;13.58;100.00;100067.47;1778841;80;21200;-61
2021/05/08 01:06:41;;;;;;;17.12;5.90;;;;;;;13.56;100.00;100066.70;1767536;79;22050;-61
2021/05/08 01:09:11;;;;;;;14.50;6.37;;;;;;;13.55;100.00;100057.34;1781878;79;21211;-61
2021/05/08 01:11:40;;;;;;;21.33;6.55;;;;;;;13.54;100.00;100061.00;1771586;80;21182;-62
2021/05/08 01:14:08;;;;;;;16.35;6.28;;;;;;;13.52;100.00;100060.23;1768624;81;21229;-60
2021/05/08 01:16:36;;;;;;;14.93;6.17;;;;;;;13.50;100.00;100060.33;1772434;80;21156;-62
2021/05/08 01:19:05;;;;;;;18.85;5.78;;;;;;;13.48;100.00;100054.14;1778340;80;21247;-62
2021/05/08 01:21:33;;;;;;;21.52;6.53;;;;;;;13.48;100.00;100053.29;1778807;79;22077;-61
2021/05/08 01:24:04;;;;;;;19.57;6.20;;;;;;;13.46;100.00;100055.59;1775224;80;21189;-61
2021/05/08 01:26:32;;;;;;;16.45;6.05;;;;;;;13.44;100.00;100049.44;1742711;80;21237;-61
2021/05/08 01:29:02;;;;;;;25.52;6.17;;;;;;;13.41;100.00;100048.23;1747371;81;21159;-60
2021/05/08 01:31:30;;;;;;;21.33;6.67;;;;;;;13.37;100.00;100045.31;1738399;80;21219;-60
2021/05/08 01:34:00;;;;;;;14.68;7.00;;;;;;;13.35;100.00;100036.95;1778040;80;21254;-62
2021/05/08 01:36:28;;;;;;;20.80;6.60;;;;;;;13.32;100.00;100040.67;1778284;80;21176;-62
2021/05/08 01:38:56;;;;;;;22.73;7.35;;;;;;;13.28;100.00;100039.12;1778105;79;21199;-60
2021/05/08 01:41:23;;;;;;;21.00;6.78;;;;;;;13.24;100.00;100025.46;1766854;80;21194;-61
2021/05/08 01:43:52;;;;;;;19.67;7.08;;;;;;;13.20;100.00;100025.25;1776055;79;22048;-60
2021/05/08 01:46:20;;;;;;;26.65;7.30;;;;;;;13.14;100.00;100025.97;1736838;82;21249;-60
2021/05/08 01:48:49;;;;;;;25.70;6.80;;;;;;;13.07;100.00;100017.87;1745729;82;21250;-60
2021/05/08 01:51:17;;;;;;;13.70;5.97;;;;;;;13.03;100.00;100017.17;1716685;82;21182;-60
2021/05/08 01:53:45;;;;;;;19.95;6.87;;;;;;;13.01;100.00;100020.92;1746392;80;21188;-60
2021/05/08 01:56:13;;;;;;;23.15;7.25;;;;;;;12.99;100.00;100018.80;1753201;80;22173;-60
2021/05/08 01:58:42;;;;;;;20.95;6.67;;;;;;;12.96;100.00;100012.25;1775189;80;21265;-61
2021/05/08 02:01:11;;;;;;;18.98;7.33;;;;;;;12.93;100.00;100013.28;1776372;80;21224;-60
2021/05/08 02:03:42;;;;;;;19.07;6.78;;;;;;;12.92;100.00;100010.66;1777098;80;21536;-60
2021/05/08 02:06:11;;;;;;;24.23;7.87;;;;;;;12.90;100.00;100007.59;1762948;80;21217;-61
2021/05/08 02:08:51;;;;;;;22.48;7.60;;;;;;;12.90;100.00;100012.11;1744564;82;21208;-60
2021/05/08 02:11:24;;;;;;;25.08;8.80;;;;;;;12.88;100.00;100008.15;1746592;80;21726;-60
2021/05/08 02:13:52;;;;;;;23.20;7.60;;;;;;;12.87;100.00;100005.08;1746948;82;21504;-60
2021/05/08 02:16:20;;;;;;;19.10;7.33;;;;;;;12.87;100.00;100002.38;1752273;80;21198;-60
2021/05/08 02:18:49;;;;;;;15.80;7.35;;;;;;;12.87;100.00;99995.66;1745608;80;21214;-59
2021/05/08 02:21:17;;;;;;;24.02;7.37;;;;;;;12.87;100.00;99990.27;1771705;79;22302;-60
2021/05/08 02:23:46;;;;;;;19.10;7.12;;;;;;;12.89;100.00;99991.55;1757641;80;21174;-59
2021/05/08 02:26:14;;;;;;;24.10;7.33;;;;;;;12.90;100.00;99991.44;1774092;80;21213;-59
2021/05/08 02:28:43;;;;;;;20.52;7.53;;;;;;;12.91;100.00;99990.98;1744801;82;21204;-59
2021/05/08 02:31:11;;;;;;;21.48;6.17;;;;;;;12.93;100.00;99994.45;1749743;80;21230;-60
2021/05/08 02:33:39;;;;;;;22.10;7.67;;;;;;;12.95;100.00;99997.91;1768666;80;21204;-59
2021/05/08 02:36:08;;;;;;;20.65;7.30;;;;;;;12.96;100.00;99996.11;1767544;80;21217;-62
2021/05/08 02:38:37;;;;;;;17.25;6.53;;;;;;;12.98;100.00;100000.42;1747603;80;21134;-61
2021/05/08 02:41:06;;;;;;;22.02;7.03;;;;;;;13.02;100.00;99994.41;1745438;80;21197;-62
2021/05/08 02:43:35;;;;;;;20.35;7.78;;;;;;;13.02;100.00;99992.56;1748279;80;21141;-60
2021/05/08 02:46:07;;;;;;;22.00;6.53;;;;;;;13.06;100.00;99991.92;1747053;80;21568;-62
2021/05/08 02:48:36;;;;;;;18.85;6.60;;;;;;;13.08;100.00;99990.00;1770697;81;21189;-59
2021/05/08 02:51:04;;;;;;;18.02;6.45;;;;;;;13.10;100.00;99987.23;1774557;79;21217;-59
2021/05/08 02:53:33;;;;;;;25.95;7.47;;;;;;;13.14;100.00;99982.91;1796539;79;21087;-60
2021/05/08 02:56:01;;;;;;;16.35;7.03;;;;;;;13.18;100.00;99981.80;1797406;79;21129;-61
2021/05/08 02:58:31;;;;;;;22.20;7.62;;;;;;;13.21;100.00;99983.92;1789935;79;21371;-59
2021/05/08 03:00:58;;;;;;;28.35;8.28;;;;;;;13.23;100.00;99984.20;1803782;79;21142;-60
2021/05/08 03:03:28;;;;;;;24.30;7.30;;;;;;;13.27;100.00;99982.21;1799633;79;21201;-60
2021/05/08 03:05:56;;;;;;;18.48;5.95;;;;;;;13.30;100.00;99986.95;1777153;79;21396;-62
2021/05/08 03:08:25;;;;;;;15.05;6.67;;;;;;;13.33;100.00;99984.53;1781388;79;21099;-61
2021/05/08 03:10:56;;;;;;;19.90;6.87;;;;;;;13.36;100.00;99991.08;1789741;80;21806;-60
2021/05/08 03:13:25;;;;;;;19.95;7.12;;;;;;;13.39;100.00;99996.31;1771384;81;21146;-61
2021/05/08 03:15:53;;;;;;;19.30;6.92;;;;;;;13.45;100.00;100009.89;1710241;82;21679;-59
2021/05/08 03:18:22;;;;;;;19.37;7.33;;;;;;;13.48;100.00;100018.28;1740878;81;21155;-60
2021/05/08 03:20:49;;;;;;;19.00;7.45;;;;;;;13.50;100.00;100058.98;1735631;82;21158;-59
2021/05/08 03:23:19;;;;;;;16.87;6.50;;;;;;;13.53;100.00;100093.81;1749847;81;21703;-61
2021/05/08 03:25:47;;;;;;;21.17;7.05;;;;;;;13.56;100.00;100079.28;1780602;79;21480;-60
2021/05/08 03:28:15;;;;;;;18.40;7.03;;;;;;;13.60;100.00;100060.66;1707047;82;21118;-61
2021/05/08 03:30:43;;;;;;;17.32;6.55;;;;;;;13.61;100.00;100078.56;1711489;82;21119;-62
2021/05/08 03:33:11;;;;;;;18.32;7.62;;;;;;;13.63;100.00;100069.91;1713633;82;21146;-61
2021/05/08 03:35:41;;;;;;;13.98;7.12;;;;;;;13.64;100.00;100054.13;1762586;80;21385;-61
2021/05/08 03:38:09;;;;;;;15.85;6.60;;;;;;;13.66;100.00;100050.87;1736905;82;21138;-61
2021/05/08 03:40:38;;;;;;;17.60;7.35;;;;;;;13.65;100.00;100065.30;1705823;84;21111;-60
2021/05/08 03:43:06;;;;;;;17.75;6.00;;;;;;;13.68;100.00;100035.94;1750909;81;21111;-62
2021/05/08 03:45:33;;;;;;;15.03;6.42;;;;;;;13.69;100.00;100026.44;1758757;80;21791;-62
2021/05/08 03:48:04;;;;;;;19.55;6.55;;;;;;;13.74;100.00;100050.41;1707296;83;22047;-61
2021/05/08 03:50:32;;;;;;;14.18;5.97;;;;;;;13.81;100.00;100037.42;1707412;83;21165;-61
2021/05/08 03:53:00;;;;;;;19.80;6.03;;;;;;;13.95;100.00;100050.94;1741690;81;21162;-61
2021/05/08 03:55:28;;;;;;;20.72;5.62;;;;;;;14.14;100.00;100057.41;1763902;81;21103;-61
2021/05/08 03:57:56;;;;;;;16.97;6.10;;;;;;;14.36;100.00;100053.89;1736739;81;21115;-61
2021/05/08 04:00:23;;;;;;;14.05;5.72;;;;;;;14.61;100.00;100050.54;1738279;81;21977;-61
2021/05/08 04:02:55;;;;;;;19.45;6.05;;;;;;;14.79;100.00;100022.89;1710345;82;21171;-62
2021/05/08 04:05:20;;;;;;;13.95;5.30;;;;;;;14.99;100.00;100020.73;1708164;82;21173;-62
2021/05/08 04:07:48;;;;;;;20.37;5.70;;;;;;;15.14;100.00;100038.64;1735245;81;21126;-62
2021/05/08 04:10:16;;;;;;;10.35;4.78;;;;;;;15.29;99.79;100049.38;1736921;82;21137;-62
2021/05/08 04:12:43;;;;;;;13.93;4.87;;;;;;;15.45;99.14;100049.22;1729857;82;21440;-62
2021/05/08 04:15:11;;;;;;;12.55;4.87;;;;;;;15.64;97.00;100054.27;1704270;82;21188;-61
2021/05/08 04:17:39;;;;;;;17.45;5.90;;;;;;;15.74;95.45;100054.02;1800848;79;21111;-61
2021/05/08 04:20:07;;;;;;;14.58;4.92;;;;;;;15.84;94.13;100062.86;1802926;79;21529;-61
2021/05/08 04:22:35;;;;;;;14.45;4.72;;;;;;;15.89;93.13;100074.25;1775829;79;21915;-62
2021/05/08 04:25:03;;;;;;;14.70;4.62;;;;;;;15.89;92.13;100075.09;1801054;79;21424;-61
2021/05/08 04:27:33;;;;;;;15.43;4.78;;;;;;;15.93;91.98;100070.36;1805442;78;21159;-61
2021/05/08 04:30:01;;;;;;;15.55;5.10;;;;;;;15.96;91.62;100074.20;1770978;80;21130;-61
2021/05/08 04:32:29;;;;;;;19.35;5.37;;;;;;;15.99;91.33;100070.43;1774912;79;21137;-61
2021/05/08 04:34:59;;;;;;;14.33;4.47;;;;;;;16.01;91.06;100061.22;1775168;79;21782;-60
2021/05/08 04:37:27;;;;;;;14.23;4.83;;;;;;;16.07;90.73;100057.74;1772054;79;21193;-61
2021/05/08 04:39:59;;;;;;;18.23;5.08;;;;;;;16.13;90.37;100073.03;1771161;80;21455;-61
2021/05/08 04:42:27;;;;;;;12.20;4.67;;;;;;;16.17;90.08;100079.10;1777202;79;21524;-61
2021/05/08 04:44:55;;;;;;;13.55;4.47;;;;;;;16.23;89.90;100082.72;1767158;81;21119;-61
2021/05/08 04:47:23;;;;;;;14.45;4.95;;;;;;;16.28;89.33;100091.41;1744453;80;21137;-60
2021/05/08 04:49:54;;;;;;;12.75;4.53;;;;;;;16.27;89.08;100103.20;1745194;82;22298;-61
2021/05/08 04:52:21;;;;;;;16.48;4.75;;;;;;;16.25;89.23;100114.61;1781080;79;21150;-61
2021/05/08 04:54:49;;;;;;;20.08;5.60;;;;;;;16.23;89.05;100120.59;1782397;79;21177;-61
2021/05/08 04:57:17;;;;;;;15.10;4.85;;;;;;;16.23;89.13;100119.73;1782167;80;21132;-61
2021/05/08 04:59:45;;;;;;;11.60;4.97;;;;;;;16.25;89.09;100129.48;1782170;79;21149;-61
2021/05/08 05:02:14;;;;;;;16.93;5.15;;;;;;;16.26;88.79;100142.04;1782530;79;21199;-60
2021/05/08 05:04:42;;;;;;;16.52;5.30;;;;;;;16.25;88.76;100136.72;1781957;80;21125;-61
2021/05/08 05:07:09;;;;;;;14.55;4.97;;;;;;;16.22;88.81;100158.06;1799642;79;21161;-61
2021/05/08 05:09:37;;;;;;;14.40;5.55;;;;;;;16.18;89.15;100170.07;1814235;79;21110;-60
2021/05/08 05:12:05;;;;;;;14.73;5.30;;;;;;;16.14;89.28;100178.02;1795549;79;21613;-61
2021/05/08 05:14:33;;;;;;;11.48;4.65;;;;;;;16.12;89.26;100202.95;1782056;79;21651;-61
2021/05/08 05:17:01;;;;;;;15.50;5.00;;;;;;;16.08;89.13;100208.19;1779462;79;21668;-61
2021/05/08 05:19:29;;;;;;;17.17;6.25;;;;;;;16.01;88.99;100203.16;1782175;80;21147;-61
2021/05/08 05:21:57;;;;;;;14.75;5.50;;;;;;;15.95;89.23;100213.55;1787383;78;21096;-61
2021/05/08 05:24:24;;;;;;;17.55;5.72;;;;;;;15.91;89.57;100231.79;1790117;79;21086;-61
2021/05/08 05:26:52;;;;;;;21.25;6.33;;;;;;;15.87;90.06;100241.05;1789800;79;21573;-59
2021/05/08 05:29:20;;;;;;;17.12;6.22;;;;;;;15.83;90.57;100248.98;1781409;79;21157;-59
2021/05/08 05:31:48;;;;;;;18.98;6.67;;;;;;;15.82;91.13;100251.30;1780298;80;21141;-60
2021/05/08 05:34:17;;;;;;;13.72;6.95;;;;;;;15.81;91.71;100246.36;1810447;79;21106;-61
2021/05/08 05:36:46;;;;;;;20.17;7.25;;;;;;;15.76;92.05;100252.05;1802354;78;21188;-61
2021/05/08 05:39:13;;;;;;;18.20;6.03;;;;;;;15.69;92.48;100260.66;1781107;80;21790;-61
2021/05/08 05:41:41;;;;;;;15.38;5.75;;;;;;;15.63;93.08;100237.62;1787254;79;21127;-61
2021/05/08 05:44:09;;;;;;;15.30;6.67;;;;;;;15.58;93.42;100226.22;1781981;80;21205;-62
2021/05/08 05:46:37;;;;;;;15.95;6.58;;;;;;;15.45;93.90;100206.77;1781923;79;21625;-61
2021/05/08 05:49:05;;;;;;;19.35;7.30;;;;;;;15.28;95.44;100186.72;1771855;80;21446;-61
2021/05/08 05:51:34;;;;;;;13.53;7.08;;;;;;;15.14;97.36;100197.93;1780768;79;22271;-61
2021/05/08 05:54:02;;;;;;;15.80;7.58;;;;;;;15.03;98.68;100185.58;1800297;79;21225;-62
2021/05/08 05:56:30;;;;;;;16.37;7.45;;;;;;;14.92;100.00;100159.72;1779879;79;21185;-61
2021/05/08 05:58:58;;;;;;;18.05;8.10;;;;;;;14.82;100.00;100141.92;1796985;79;21820;-61
2021/05/08 06:01:26;;;;;;;20.55;8.00;;;;;;;14.76;100.00;100139.11;1802540;79;21186;-61
2021/05/08 06:06:35;;;;;;;13.18;7.30;;;;;;;14.79;100.00;100152.41;1837497;77;28352;-60
2021/05/08 06:09:04;;;;;;;11.35;5.95;;;;;;;14.76;100.00;100159.35;1782545;80;21440;-60
2021/05/08 06:11:32;;;;;;;10.35;5.70;;;;;;;14.83;100.00;100167.44;1717860;82;21732;-61
2021/05/08 06:14:00;;;;;;;11.65;6.15;;;;;;;14.94;100.00;100167.27;1747844;82;21029;-61
2021/05/08 06:16:28;;;;;;;6.80;4.78;;;;;;;15.01;100.00;100165.41;1739870;80;21027;-62
2021/05/08 06:18:56;;;;;;;6.72;5.00;;;;;;;15.03;100.00;100178.83;1736326;82;21036;-59
2021/05/08 06:21:24;;;;;;;5.70;3.52;;;;;;;14.90;100.00;100188.17;1762308;81;21153;-62
2021/05/08 06:23:52;;;;;;;7.55;3.30;;;;;;;14.78;100.00;100193.84;1748307;81;21579;-61
2021/05/08 06:26:20;;;;;;;7.45;2.15;;;;;;;14.71;99.52;100211.39;1749523;81;21492;-61
2021/05/08 06:28:48;;;;;;;2.02;1.27;;;;;;;14.68;97.01;100203.42;1746526;80;21186;-61
2021/05/08 06:31:16;;;;;;;3.02;1.65;;;;;;;14.58;94.83;100218.83;1739817;80;21130;-61
2021/05/08 06:33:44;;;;;;;1.75;1.32;;;;;;;14.52;95.01;100246.19;1728628;81;21119;-61
2021/05/08 06:36:11;;;;;;;2.02;1.52;;;;;;;14.44;94.50;100252.50;1728506;81;21781;-60
2021/05/08 06:38:39;;;;;;;2.37;1.12;;;;;;;14.42;94.80;100258.00;1751136;81;21138;-61
2021/05/08 06:41:07;;;;;;;1.32;1.00;;;;;;;14.45;94.58;100274.45;1751242;81;21004;-61
2021/05/08 06:43:37;;;;;;;2.05;1.25;;;;;;;14.39;93.34;100278.88;1723169;81;21106;-61
2021/05/08 06:46:05;;;;;;;2.05;1.52;;;;;;;14.29;91.47;100294.25;1723370;82;21525;-61
2021/05/08 06:48:33;;;;;;;2.22;1.45;;;;;;;14.15;91.32;100269.91;1730144;81;23197;-60
2021/05/08 06:51:00;;;;;;;4.72;1.80;;;;;;;13.99;92.00;100278.86;1749889;81;21142;-61
2021/05/08 06:53:28;;;;;;;4.65;1.92;;;;;;;13.95;93.36;100295.31;1751779;81;21097;-60
2021/05/08 06:55:56;;;;;;;3.98;1.80;;;;;;;13.96;93.37;100299.25;1748051;81;21253;-59
2021/05/08 06:58:24;;;;;;;7.22;1.60;;;;;;;13.95;92.21;100297.52;1726697;81;21130;-61
2021/05/08 07:00:51;;;;;;;2.55;1.30;;;;;;;13.88;90.71;100292.09;1725386;81;21428;-60
2021/05/08 07:03:19;;;;;;;2.42;1.17;;;;;;;13.72;90.88;100303.72;1722244;81;21158;-61
2021/05/08 07:05:47;;;;;;;2.02;1.30;;;;;;;13.61;92.16;100301.61;1714537;83;21170;-61
2021/05/08 07:08:15;;;;;;;2.17;1.27;;;;;;;13.53;93.08;100336.19;1711323;83;21015;-61
2021/05/08 07:10:49;;;;;;;3.05;1.70;;;;;;;13.46;93.99;100334.30;1722153;83;21222;-61
2021/05/08 07:13:18;;;;;;;3.27;1.70;;;;;;;13.35;95.39;100301.64;1704263;83;21392;-61
2021/05/08 07:15:48;;;;;;;3.83;1.60;;;;;;;13.15;100.00;100309.00;1692638;84;21232;-61
2021/05/08 07:18:17;;;;;;;8.68;2.58;;;;;;;12.85;100.00;100341.91;1691197;83;21208;-62
2021/05/08 07:20:45;;;;;;;3.60;1.85;;;;;;;12.59;100.00;100341.87;1658385;84;21249;-61
2021/05/08 07:23:13;;;;;;;4.33;1.72;;;;;;;12.42;100.00;100323.45;1698054;83;21232;-62
2021/05/08 07:25:41;;;;;;;3.12;1.77;;;;;;;12.29;100.00;100332.59;1692409;84;22381;-61
2021/05/08 07:28:23;;;;;;;3.30;1.42;;;;;;;12.25;100.00;100353.81;1702249;83;21245;-62
2021/05/08 07:30:53;;;;;;;8.30;1.95;;;;;;;12.25;100.00;100361.02;1693752;84;21170;-62
2021/05/08 07:33:21;;;;;;;5.47;2.40;;;;;;;12.28;100.00;100382.38;1693921;83;21011;-62
2021/05/08 07:35:50;;;;;;;5.60;2.00;;;;;;;12.32;100.00;100395.60;1693123;84;21712;-61
2021/05/08 07:38:18;;;;;;;5.87;2.20;;;;;;;12.35;100.00;100382.95;1693097;83;22157;-63
2021/05/08 07:40:51;;;;;;;4.00;2.30;;;;;;;12.40;100.00;100391.66;1710998;83;21245;-62
2021/05/08 07:43:19;;;;;;;5.15;1.90;;;;;;;12.46;100.00;100383.29;1707913;83;21146;-62
2021/05/08 07:45:48;;;;;;;4.45;2.02;;;;;;;12.55;100.00;100382.86;1693646;84;21150;-62
2021/05/08 07:48:15;;;;;;;7.35;3.22;;;;;;;12.68;100.00;100379.55;1693417;83;21639;-62
2021/05/08 07:50:43;;;;;;;5.53;2.00;;;;;;;12.85;100.00;100378.23;1692795;83;22836;-62
2021/05/08 07:53:12;;;;;;;2.90;1.82;;;;;;;13.02;100.00;100395.34;1695025;83;21238;-62
2021/05/08 07:55:40;;;;;;;4.40;1.77;;;;;;;13.09;96.34;100404.84;1693384;84;21225;-62
2021/05/08 07:58:08;;;;;;;2.10;1.47;;;;;;;13.15;93.78;100413.08;1697286;83;21267;-61
2021/05/08 08:00:35;;;;;;;3.05;1.50;;;;;;;13.24;93.96;100399.13;1713429;83;21209;-61
2021/05/08 08:03:04;;;;;;;2.77;1.37;;;;;;;13.36;91.58;100400.31;1695143;83;21401;-62
2021/05/08 08:05:34;;;;;;;9.08;1.70;;;;;;;13.43;88.50;100412.56;1722347;82;21166;-60
2021/05/08 08:08:03;;;;;;;2.92;1.30;;;;;;;13.51;87.46;100413.97;1736072;82;21142;-61
2021/05/08 08:10:31;;;;;;;3.12;1.37;;;;;;;13.60;85.90;100406.77;1735278;82;21122;-62
2021/05/08 08:12:59;;;;;;;3.25;1.32;;;;;;;13.65;84.53;100416.81;1711658;82;21016;-62
2021/05/08 08:15:26;;;;;;;4.15;1.87;;;;;;;13.70;84.23;100420.13;1736558;82;21766;-61
2021/05/08 08:17:54;;;;;;;3.92;1.50;;;;;;;13.75;84.85;100422.58;1737733;81;21156;-61
2021/05/08 08:20:22;;;;;;;4.55;1.22;;;;;;;13.79;83.98;100431.34;1743981;81;21480;-62
2021/05/08 08:22:50;;;;;;;3.30;1.95;;;;;;;13.81;83.40;100450.99;1765291;81;21238;-60
2021/05/08 08:25:18;;;;;;;7.33;2.27;;;;;;;13.85;84.78;100428.34;1724543;82;21332;-62
2021/05/08 08:27:46;;;;;;;5.78;2.20;;;;;;;13.95;85.33;100436.31;1718660;82;21256;-62
2021/05/08 08:30:16;;;;;;;5.97;2.50;;;;;;;14.09;84.95;100433.35;1731501;81;21222;-62
2021/05/08 08:32:44;;;;;;;6.65;3.05;;;;;;;14.25;84.58;100419.88;1765462;81;21234;-61
2021/05/08 08:35:12;;;;;;;3.65;2.40;;;;;;;14.33;83.09;100449.52;1749463;80;21197;-61
2021/05/08 08:37:40;;;;;;;6.28;2.00;;;;;;;14.36;81.49;100457.89;1776201;79;21179;-62
2021/05/08 08:40:10;;;;;;;2.47;1.77;;;;;;;14.36;80.24;100453.00;1771219;81;21894;-61
2021/05/08 08:42:40;;;;;;;2.65;1.75;;;;;;;14.36;80.49;100455.20;1774508;79;21358;-61
2021/05/08 08:45:09;;;;;;;3.75;2.22;;;;;;;14.37;79.84;100469.56;1745301;79;21003;-60
2021/05/08 08:47:36;;;;;;;4.15;1.98;;;;;;;14.42;80.13;100475.56;1802137;79;21129;-61
2021/05/08 08:50:08;;;;;;;3.75;1.82;;;;;;;14.51;80.01;100476.42;1801193;79;21473;-62
2021/05/08 08:52:36;;;;;;;3.52;2.10;;;;;;;14.52;78.20;100501.09;1802162;79;21213;-61
2021/05/08 08:55:08;;;;;;;2.75;1.70;;;;;;;14.58;78.43;100485.91;1797684;79;20966;-60
2021/05/08 08:57:43;;;;;;;4.42;1.37;;;;;;;14.67;77.99;100484.98;1761416;81;21198;-62
2021/05/08 09:00:13;;;;;;;4.60;1.80;;;;;;;14.73;75.87;100508.97;1733434;82;21252;-63
2021/05/08 09:02:46;;;;;;;3.60;1.37;;;;;;;14.85;75.74;100502.01;1765478;81;21060;-61
2021/05/08 09:05:19;;;;;;;7.37;2.17;;;;;;;14.97;75.04;100486.94;1722938;82;21241;-61
2021/05/08 09:07:48;;;;;;;1.98;1.40;;;;;;;15.13;75.56;100487.77;1736156;82;21271;-62
2021/05/08 09:10:28;;;;;;;2.80;1.50;;;;;;;15.24;74.78;100506.53;1725746;81;21210;-63
2021/05/08 09:12:59;;;;;;;4.15;1.65;;;;;;;15.25;73.68;100497.00;1727160;82;21254;-62
2021/05/08 09:15:39;;;;;;;3.92;1.98;;;;;;;15.30;74.31;100496.71;1700763;82;21234;-61
2021/05/08 09:18:10;;;;;;;1.62;1.40;;;;;;;15.31;73.93;100489.88;1713494;82;21380;-63
2021/05/08 09:20:52;;;;;;;3.15;1.70;;;;;;;15.38;73.36;100493.09;1708702;80;21262;-61
2021/05/08 09:23:23;;;;;;;3.00;2.08;;;;;;;15.43;73.23;100516.65;1745744;80;21195;-61
2021/05/08 09:26:06;;;;;;;2.10;1.80;;;;;;;15.43;73.43;100513.95;1733578;81;21403;-61
2021/05/08 09:28:37;;;;;;;2.22;2.00;;;;;;;15.42;70.95;100521.66;1756280;80;21188;-62
2021/05/08 09:31:07;;;;;;;4.03;2.08;;;;;;;15.43;70.42;100501.78;1759983;81;22760;-62
2021/05/08 09:33:35;;;;;;;2.58;2.33;;;;;;;15.52;70.52;100515.70;1735510;82;21161;-62
2021/05/08 09:36:10;;;;;;;5.05;2.70;;;;;;;15.62;70.04;100515.55;1734377;82;21199;-60
2021/05/08 09:38:43;;;;;;;5.58;3.12;;;;;;;15.75;68.00;100536.80;1764953;81;21237;-60
2021/05/08 09:41:13;;;;;;;7.70;3.40;;;;;;;15.89;66.84;100543.25;1745699;81;21636;-62
2021/05/08 09:43:42;;;;;;;6.25;3.70;;;;;;;16.02;66.26;100532.05;1732832;82;21205;-61
2021/05/08 09:46:24;;;;;;;5.87;3.35;;;;;;;16.13;66.27;100545.41;1758430;80;21265;-60
2021/05/08 09:49:12;;;;;;;5.03;3.02;;;;;;;16.20;67.12;100540.00;1735462;82;21229;-61
2021/05/08 09:51:40;;;;;;;5.42;3.33;;;;;;;16.13;66.16;100542.21;1737070;81;21242;-62
2021/05/08 09:54:13;;;;;;;6.08;3.75;;;;;;;16.09;66.83;100542.52;1745331;81;21220;-62
2021/05/08 09:56:44;;;;;;;5.47;3.58;;;;;;;16.06;68.67;100548.97;1724318;83;21246;-61
2021/05/08 09:59:34;;;;;;;5.28;3.42;;;;;;;16.03;69.97;100557.28;1744271;82;21233;-61
2021/05/08 10:02:09;;;;;;;5.83;3.70;;;;;;;15.98;69.26;100564.30;1715813;82;21245;-62
2021/05/08 10:04:52;;;;;;;6.20;4.15;;;;;;;15.75;70.72;100548.11;1801774;79;21229;-62
2021/05/08 10:07:21;;;;;;;5.90;3.10;;;;;;;15.75;71.94;100585.45;1752580;79;21544;-62
2021/05/08 10:09:59;;;;;;;3.70;2.85;;;;;;;15.84;69.92;100552.09;1743923;82;21189;-63
2021/05/08 10:12:29;;;;;;;4.95;3.58;;;;;;;15.88;69.57;100544.19;1747100;80;21226;-60
2021/05/08 10:14:58;;;;;;;4.40;3.52;;;;;;;15.89;69.94;100567.59;1741229;80;21825;-61
2021/05/08 10:17:30;;;;;;;6.25;3.65;;;;;;;15.84;70.02;100561.06;1742029;80;21183;-62
2021/05/08 10:20:09;;;;;;;11.45;3.50;;;;;;;15.79;69.05;100582.56;1741307;79;21606;-61
2021/05/08 10:22:51;;;;;;;6.05;2.72;;;;;;;15.72;68.32;100576.19;1741688;81;21212;-62
2021/05/08 10:25:19;;;;;;;4.80;3.12;;;;;;;15.80;68.57;100593.77;1764795;80;21218;-61
2021/05/08 10:27:47;;;;;;;8.53;3.10;;;;;;;15.88;68.84;100592.38;1741523;82;21223;-62
2021/05/08 10:30:26;;;;;;;4.67;2.65;;;;;;;15.98;67.84;100573.77;1735921;81;21415;-63
2021/05/08 10:32:54;;;;;;;3.10;2.80;;;;;;;16.06;66.64;100569.75;1715179;82;21198;-61
2021/05/08 10:35:26;;;;;;;3.05;2.70;;;;;;;16.08;64.71;100579.99;1713530;82;22142;-61
2021/05/08 10:38:23;;;;;;;5.22;3.12;;;;;;;16.08;65.04;100582.20;1706049;82;21235;-61
2021/05/08 10:41:02;;;;;;;5.28;3.27;;;;;;;16.11;65.53;100589.27;1693842;83;21252;-61
2021/05/08 10:43:54;;;;;;;4.45;2.52;;;;;;;16.15;64.20;100609.75;1707492;83;21226;-61
2021/05/08 10:46:27;;;;;;;6.17;2.83;;;;;;;16.09;62.85;100627.70;1709627;82;21243;-62
2021/05/08 10:49:13;;;;;;;4.05;2.80;;;;;;;15.95;63.53;100620.42;1707094;82;21918;-63
2021/05/08 10:51:58;;;;;;;8.30;3.17;;;;;;;15.90;64.86;100611.22;1757592;80;21218;-61
2021/05/08 10:54:44;;;;;;;6.17;3.92;;;;;;;15.88;65.00;100607.72;1741793;82;21218;-60
2021/05/08 10:57:26;;;;;;;5.85;3.10;;;;;;;15.88;65.23;100609.06;1765895;80;21201;-62
2021/05/08 11:00:08;;;;;;;6.42;2.90;;;;;;;15.87;65.34;100607.33;1771124;80;21245;-62
2021/05/08 11:02:47;;;;;;;3.77;2.50;;;;;;;15.81;64.42;100614.45;1750277;80;21340;-61
2021/05/08 11:05:35;;;;;;;4.62;2.40;;;;;;;15.84;65.45;100614.27;1754939;80;21225;-61
2021/05/08 11:08:28;;;;;;;7.45;3.27;;;;;;;15.89;64.74;100629.27;1796889;79;21194;-60
2021/05/08 11:11:00;;;;;;;3.58;2.30;;;;;;;15.90;63.73;100638.26;1782768;79;21260;-60
2021/05/08 11:13:44;;;;;;;5.85;2.50;;;;;;;15.87;64.32;100611.38;1784440;79;21187;-62
2021/05/08 11:16:18;;;;;;;11.23;2.80;;;;;;;15.88;65.26;100630.23;1749734;79;22209;-61
2021/05/08 11:18:48;;;;;;;3.05;2.35;;;;;;;15.88;63.06;100615.83;1802675;79;21241;-62
2021/05/08 11:21:22;;;;;;;5.03;2.50;;;;;;;15.83;60.99;100650.37;1790964;79;21231;-61
2021/05/08 11:23:55;;;;;;;3.10;2.05;;;;;;;15.80;62.11;100636.55;1770084;81;21226;-61
2021/05/08 11:26:28;;;;;;;2.25;1.80;;;;;;;15.87;61.30;100643.83;1779562;79;21177;-60
2021/05/08 11:29:21;;;;;;;5.93;1.97;;;;;;;15.85;59.51;100659.27;1769966;80;21890;-61
2021/05/08 11:31:51;;;;;;;7.53;2.30;;;;;;;15.78;58.14;100647.94;1769830;80;21496;-60
2021/05/08 11:34:26;;;;;;;2.95;1.37;;;;;;;15.70;58.79;100632.66;1769708;81;21194;-61